Time;durP1;ratioP1;P1;durP2;ratioP2;P2;SDS_P1;SDS_P2;PMS_P1;PMS_P2;Temp;Humidity;BMP_temperature;BMP_pressure;BME280_temperature;BME280_humidity;BME280_pressure;Samples;Min_cycle;Max_cycle;Signal;HPM_P1;HPM_P2
2021/09/14 00:02:58;;;;;;;;;;;;;;;27.86;56.07;96936.34;1104322;262;98938;-59
2021/09/14 00:08:00;;;;;;;;;;;;;;;27.59;56.56;96936.35;1103366;262;98945;-59
2021/09/14 00:13:01;;;;;;;;;;;;;;;27.50;56.65;96938.59;1103234;262;68864;-53
2021/09/14 00:18:03;;;;;;;;;;;;;;;27.31;56.95;96937.30;1112935;260;68328;-51
2021/09/14 00:23:04;;;;;;;;;;;;;;;27.45;56.66;96934.77;1106947;261;277121;-52
2021/09/14 00:28:05;;;;;;;;;;;;;;;27.54;56.60;96929.73;1106490;261;99421;-50
2021/09/14 00:33:07;;;;;;;;;;;;;;;26.25;59.19;96923.05;1105241;262;100238;-57
2021/09/14 00:38:08;;;;;;;;;;;;;;;25.62;60.27;96926.05;1109102;262;68378;-59
2021/09/14 00:43:09;;;;;;;;;;;;;;;27.38;56.88;96914.56;1103168;262;69199;-48
2021/09/14 00:48:11;;;;;;;;;;;;;;;29.92;52.43;96908.26;1106837;262;190365;-48
2021/09/14 00:53:12;;;;;;;;;;;;;;;30.65;51.09;96910.97;1113633;261;98946;-47
2021/09/14 00:58:13;;;;;;;;;;;;;;;30.61;50.95;96900.32;1108680;261;99113;-50
2021/09/14 01:03:15;;;;;;;;;;;;;;;30.61;51.62;96900.32;1106163;262;67204;-51
2021/09/14 01:08:16;;;;;;;;;;;;;;;33.13;48.24;96896.08;1105015;262;68979;-52
2021/09/14 01:13:17;;;;;;;;;;;;;;;33.47;48.17;96892.59;1105541;262;183388;-56
2021/09/14 01:18:19;;;;;;;;;;;;;;;33.71;47.94;96887.34;1107661;260;99426;-55
2021/09/14 01:23:20;;;;;;;;;;;;;;;33.89;47.93;96887.95;1104504;262;98855;-51
2021/09/14 01:28:22;;;;;;;;;;;;;;;34.28;47.63;96880.25;1103449;262;68053;-49
2021/09/14 01:33:23;;;;;;;;;;;;;;;32.89;49.50;96881.64;1103780;263;68143;-58
2021/09/14 01:38:24;;;;;;;;;;;;;;;31.97;50.96;96883.69;1105100;262;275317;-56
2021/09/14 01:43:26;;;;;;;;;;;;;;;31.28;52.08;96889.84;1108082;262;98045;-58
2021/09/14 01:48:27;;;;;;;;;;;;;;;30.72;52.88;96889.38;1109514;261;97988;-59
2021/09/14 01:53:28;;;;;;;;;;;;;;;30.29;53.55;96896.05;1103101;262;68080;-56
2021/09/14 01:58:30;;;;;;;;;;;;;;;29.89;54.18;96893.08;1105553;262;67864;-58
2021/09/14 02:03:44;;;;;;;;;;;;;;;29.57;54.70;96888.72;1110500;261;66201;-58
2021/09/14 02:08:57;;;;;;;;;;;;;;;29.29;55.13;96901.86;1112426;261;158111;-60
2021/09/14 02:40:57;;;;;;;;;;;;;;;24.02;62.49;96887.31;1103708;262;152002;-60
2021/09/14 03:01:25;;;;;;;;;;;;;;;26.05;58.03;96879.23;1104970;262;163691;-47
2021/09/14 03:06:26;;;;;;;;;;;;;;;26.40;57.52;96886.08;1105998;261;99347;-51
2021/09/14 03:11:28;;;;;;;;;;;;;;;26.66;56.97;96870.05;1105819;262;98942;-47
2021/09/14 03:16:29;;;;;;;;;;;;;;;27.14;56.16;96884.98;1112530;261;66141;-48
2021/09/14 03:21:30;;;;;;;;;;;;;;;27.57;55.36;96871.89;1111124;261;67408;-46
2021/09/14 03:26:32;;;;;;;;;;;;;;;27.66;55.69;96880.80;1111402;261;186089;-57
2021/09/14 03:31:34;;;;;;;;;;;;;;;27.98;55.31;96867.87;1110851;261;97987;-55
2021/09/14 03:36:35;;;;;;;;;;;;;;;27.80;55.80;96869.63;1112151;261;99046;-56
2021/09/14 03:41:37;;;;;;;;;;;;;;;27.58;56.25;96872.11;1111409;261;99001;-54
2021/09/14 03:46:38;;;;;;;;;;;;;;;27.36;56.68;96874.38;1111014;261;66894;-58
2021/09/14 03:51:39;;;;;;;;;;;;;;;27.12;57.11;96867.27;1112632;261;67246;-56
2021/09/14 03:56:41;;;;;;;;;;;;;;;26.93;57.45;96866.73;1112156;261;275170;-53
2021/09/14 04:01:47;;;;;;;;;;;;;;;26.77;57.79;96867.45;1111974;261;98061;-57
2021/09/14 04:12:04;;;;;;;;;;;;;;;26.46;58.29;96865.12;1098168;262;247383;-56
2021/09/14 04:17:05;;;;;;;;;;;;;;;26.33;58.55;96865.06;1108780;261;98031;-61
2021/09/14 04:22:06;;;;;;;;;;;;;;;26.21;58.73;96861.06;1106796;262;97986;-56
2021/09/14 04:27:08;;;;;;;;;;;;;;;26.10;58.92;96854.51;1106835;262;66143;-55
2021/09/14 04:32:09;;;;;;;;;;;;;;;26.00;59.02;96850.34;1107223;262;68686;-56
2021/09/14 04:37:10;;;;;;;;;;;;;;;25.89;59.20;96851.52;1107409;261;189729;-52
2021/09/14 04:42:12;;;;;;;;;;;;;;;25.80;59.31;96863.44;1106152;262;99018;-59
2021/09/14 04:47:13;;;;;;;;;;;;;;;25.71;59.46;96860.06;1107545;262;98937;-60
2021/09/14 04:52:15;;;;;;;;;;;;;;;25.62;59.51;96862.22;1103349;261;68807;-55
2021/09/14 04:57:16;;;;;;;;;;;;;;;25.58;59.62;96867.70;1106012;261;67196;-53
2021/09/14 05:02:17;;;;;;;;;;;;;;;25.49;59.76;96869.08;1109562;261;185410;-57
2021/09/14 05:07:19;;;;;;;;;;;;;;;25.43;59.83;96867.77;1107315;262;98005;-57
2021/09/14 05:12:20;;;;;;;;;;;;;;;25.35;59.93;96863.44;1104973;262;97999;-59
2021/09/14 05:17:21;;;;;;;;;;;;;;;25.28;60.04;96865.23;1112341;259;68213;-57
2021/09/14 05:22:30;;;;;;;;;;;;;;;25.21;60.17;96864.52;1111521;261;68695;-56
2021/09/14 05:27:26;;;;;;;;;;;;;;;25.18;60.17;96867.98;1112172;261;242384;-54
2021/09/14 05:32:27;;;;;;;;;;;;;;;25.12;60.28;96863.91;1112497;261;98046;-58
2021/09/14 05:37:28;;;;;;;;;;;;;;;25.07;60.34;96860.01;1112341;261;98294;-55
2021/09/14 05:42:30;;;;;;;;;;;;;;;25.00;60.43;96866.17;1112773;261;66295;-55
2021/09/14 05:47:31;;;;;;;;;;;;;;;24.96;60.46;96858.92;1112009;261;68390;-55
2021/09/14 05:52:32;;;;;;;;;;;;;;;24.90;60.54;96860.37;1111626;259;189716;-52
2021/09/14 05:57:34;;;;;;;;;;;;;;;24.86;60.57;96867.20;1105800;261;98960;-59
2021/09/14 06:02:35;;;;;;;;;;;;;;;24.84;60.62;96865.95;1105375;262;98981;-56
2021/09/14 06:07:37;;;;;;;;;;;;;;;24.80;60.65;96872.23;1110370;260;67648;-53
2021/09/14 06:12:38;;;;;;;;;;;;;;;24.77;60.69;96877.66;1112170;259;70269;-55
2021/09/14 06:17:42;;;;;;;;;;;;;;;24.72;60.76;96872.40;1112400;261;185329;-57
2021/09/14 06:22:44;;;;;;;;;;;;;;;24.68;60.83;96865.98;1111236;261;186333;-60
2021/09/14 06:27:45;;;;;;;;;;;;;;;24.67;60.81;96869.88;1111940;261;99107;-58
2021/09/14 06:32:47;;;;;;;;;;;;;;;24.62;60.86;96867.39;1112373;261;98979;-51
2021/09/14 06:37:48;;;;;;;;;;;;;;;24.59;60.94;96871.69;1108399;261;66957;-57
2021/09/14 06:42:49;;;;;;;;;;;;;;;24.58;60.93;96870.67;1114272;260;67594;-57
2021/09/14 06:47:51;;;;;;;;;;;;;;;24.55;60.99;96873.55;1111655;260;275481;-55
2021/09/14 06:52:52;;;;;;;;;;;;;;;24.51;61.03;96868.50;1111338;261;98957;-53
2021/09/14 06:57:53;;;;;;;;;;;;;;;24.48;61.05;96863.10;1112694;260;99010;-51
2021/09/14 07:02:55;;;;;;;;;;;;;;;24.46;61.10;96859.89;1112541;259;67490;-56
2021/09/14 07:07:56;;;;;;;;;;;;;;;24.42;61.17;96858.98;1102641;261;67936;-55
2021/09/14 07:12:58;;;;;;;;;;;;;;;24.42;61.18;96862.33;1111787;261;189774;-52
2021/09/14 07:17:59;;;;;;;;;;;;;;;24.39;61.25;96857.51;1104900;263;99003;-56
2021/09/14 07:23:01;;;;;;;;;;;;;;;24.38;61.29;96862.83;1112967;261;98993;-56
2021/09/14 07:28:02;;;;;;;;;;;;;;;24.36;61.33;96859.61;1105700;263;194953;-57
2021/09/14 07:33:04;;;;;;;;;;;;;;;24.35;61.32;96855.20;1111734;261;98022;-54
2021/09/14 07:38:05;;;;;;;;;;;;;;;24.33;61.37;96865.84;1104198;263;97991;-50
2021/09/14 07:43:06;;;;;;;;;;;;;;;24.30;61.36;96854.06;1112252;260;67128;-53
2021/09/14 07:48:08;;;;;;;;;;;;;;;24.30;61.43;96855.45;1106865;262;68371;-56
2021/09/14 07:53:09;;;;;;;;;;;;;;;24.28;61.46;96859.97;1112947;260;98960;-58
2021/09/14 07:58:10;;;;;;;;;;;;;;;24.26;61.49;96862.30;1105252;262;68386;-51
2021/09/14 08:03:12;;;;;;;;;;;;;;;24.25;61.53;96862.07;1113527;260;66958;-52
2021/09/14 08:08:13;;;;;;;;;;;;;;;24.22;61.55;96863.56;1104819;263;275867;-57
2021/09/14 08:13:15;;;;;;;;;;;;;;;24.22;61.61;96866.33;1112845;260;99218;-57
2021/09/14 08:18:16;;;;;;;;;;;;;;;24.17;61.64;96863.84;1102984;263;98965;-58
2021/09/14 08:23:18;;;;;;;;;;;;;;;24.22;61.60;96870.48;1109334;260;67043;-53
2021/09/14 08:28:19;;;;;;;;;;;;;;;24.19;61.67;96864.86;1107710;260;67914;-59
2021/09/14 08:33:20;;;;;;;;;;;;;;;24.19;61.69;96862.89;1108107;260;67288;-52
2021/09/14 08:38:22;;;;;;;;;;;;;;;24.18;61.72;96857.13;1105219;261;67273;-58
2021/09/14 08:43:23;;;;;;;;;;;;;;;24.15;61.74;96854.28;1106538;262;68385;-59
2021/09/14 08:48:25;;;;;;;;;;;;;;;24.15;61.74;96850.93;1109392;260;68302;-56
2021/09/14 08:53:26;;;;;;;;;;;;;;;24.14;61.79;96861.78;1112190;260;68030;-56
2021/09/14 08:58:27;;;;;;;;;;;;;;;24.13;61.82;96866.27;1111391;261;66995;-58
2021/09/14 09:03:29;;;;;;;;;;;;;;;24.13;61.84;96860.73;1111355;260;67408;-56
2021/09/14 09:08:31;;;;;;;;;;;;;;;24.11;61.89;96858.90;1112265;260;185225;-57
2021/09/14 09:13:32;;;;;;;;;;;;;;;24.11;61.90;96859.70;1112055;261;98018;-55
2021/09/14 09:18:33;;;;;;;;;;;;;;;24.10;61.87;96854.52;1112268;260;98028;-51
2021/09/14 09:23:35;;;;;;;;;;;;;;;24.10;61.86;96860.86;1112244;260;67996;-58
2021/09/14 09:28:36;;;;;;;;;;;;;;;24.10;61.93;96854.52;1111930;260;66974;-52
2021/09/14 09:33:38;;;;;;;;;;;;;;;24.07;61.90;96853.27;1104453;262;278274;-56
2021/09/14 09:38:39;;;;;;;;;;;;;;;24.07;61.93;96857.42;1111009;260;98987;-56
2021/09/14 09:43:40;;;;;;;;;;;;;;;24.07;61.95;96858.81;1101820;262;98946;-56
2021/09/14 09:48:42;;;;;;;;;;;;;;;24.06;61.98;96857.20;1103950;262;67710;-59
2021/09/14 09:53:43;;;;;;;;;;;;;;;24.07;61.85;96860.20;1110573;260;66855;-57
2021/09/14 09:58:45;;;;;;;;;;;;;;;24.05;62.01;96850.06;1103645;262;66058;-56
2021/09/14 10:03:47;;;;;;;;;;;;;;;24.05;62.00;96847.88;1105090;261;191153;-55
2021/09/14 10:08:48;;;;;;;;;;;;;;;24.03;62.03;96853.77;1105676;262;98016;-55
2021/09/14 10:13:50;;;;;;;;;;;;;;;24.02;62.13;96845.79;1106995;260;98015;-55
2021/09/14 10:18:51;;;;;;;;;;;;;;;24.02;62.05;96849.36;1106499;261;194993;-54
2021/09/14 10:23:52;;;;;;;;;;;;;;;24.03;62.04;96845.46;1104233;262;98865;-57
2021/09/14 10:28:54;;;;;;;;;;;;;;;24.01;62.13;96843.60;1104999;262;98922;-54
2021/09/14 10:33:55;;;;;;;;;;;;;;;24.00;62.14;96842.58;1107069;262;67480;-56
2021/09/14 10:38:56;;;;;;;;;;;;;;;24.01;62.12;96843.60;1108106;262;68726;-57
2021/09/14 10:43:59;;;;;;;;;;;;;;;24.01;62.13;96841.41;1108768;262;98953;-55
2021/09/14 10:49:01;;;;;;;;;;;;;;;23.97;62.13;96835.79;1108643;262;99037;-54
2021/09/14 10:54:02;;;;;;;;;;;;;;;23.98;62.16;96838.78;1106414;262;69852;-59
2021/09/14 10:59:03;;;;;;;;;;;;;;;23.98;62.17;96832.44;1106518;261;67005;-58
2021/09/14 11:04:09;;;;;;;;;;;;;;;23.96;62.21;96828.64;1107463;262;277496;-60
2021/09/14 11:09:08;;;;;;;;;;;;;;;23.96;62.19;96824.49;1112330;261;247623;-53
2021/09/14 11:14:09;;;;;;;;;;;;;;;23.95;62.22;96824.27;1107782;262;98941;-54
2021/09/14 11:19:11;;;;;;;;;;;;;;;23.95;62.21;96825.08;1106549;262;98938;-52
2021/09/14 11:24:12;;;;;;;;;;;;;;;23.95;62.24;96821.50;1107202;261;67277;-58
2021/09/14 11:29:14;;;;;;;;;;;;;;;23.95;62.28;96820.12;1102940;263;68666;-55
2021/09/14 11:34:17;;;;;;;;;;;;;;;23.94;62.29;96818.52;1101774;263;191673;-57
2021/09/14 11:39:18;;;;;;;;;;;;;;;23.94;62.33;96817.94;1102425;262;98946;-54
2021/09/14 11:44:19;;;;;;;;;;;;;;;24.05;62.31;96829.30;1112115;261;98883;-54
2021/09/14 11:49:21;;;;;;;;;;;;;;;24.03;62.28;96828.02;1113286;261;98934;-54
2021/09/14 11:54:25;;;;;;;;;;;;;;;24.03;62.30;96828.85;1103757;262;67113;-53
2021/09/14 11:59:25;;;;;;;;;;;;;;;24.02;62.33;96823.64;1104695;262;66812;-55
2021/09/14 12:04:26;;;;;;;;;;;;;;;24.01;62.34;96824.22;1110674;261;67106;-56
2021/09/14 12:09:31;;;;;;;;;;;;;;;24.01;62.35;96820.07;1110205;261;186961;-52
2021/09/14 12:14:32;;;;;;;;;;;;;;;24.02;62.35;96820.88;1104780;262;184656;-59
2021/09/14 12:19:34;;;;;;;;;;;;;;;24.01;62.36;96820.07;1107212;262;98814;-53
2021/09/14 12:24:35;;;;;;;;;;;;;;;24.01;62.37;96820.07;1109619;261;98055;-56
2021/09/14 12:29:36;;;;;;;;;;;;;;;24.04;62.36;96818.58;1105167;261;67206;-55
2021/09/14 12:34:38;;;;;;;;;;;;;;;24.03;62.36;96823.86;1110632;260;68068;-58
2021/09/14 12:39:39;;;;;;;;;;;;;;;24.03;62.36;96816.39;1104515;262;68410;-54
2021/09/14 12:44:41;;;;;;;;;;;;;;;24.04;62.32;96809.69;1111310;261;67986;-56
2021/09/14 12:49:42;;;;;;;;;;;;;;;24.04;62.28;96809.69;1112458;260;66043;-58
2021/09/14 12:54:43;;;;;;;;;;;;;;;24.01;63.41;96793.77;1112054;261;68918;-64
2021/09/14 12:59:45;;;;;;;;;;;;;;;23.58;67.64;96791.22;1112631;261;67701;-57
2021/09/14 13:04:46;;;;;;;;;;;;;;;25.09;64.10;96788.34;1112882;261;68152;-48
2021/09/14 13:09:47;;;;;;;;;;;;;;;26.02;62.14;96791.66;1111961;261;190800;-54
2021/09/14 13:20:08;;;;;;;;;;;;;;;27.35;59.26;96773.98;1111875;261;152072;-52
2021/09/14 13:25:09;;;;;;;;;;;;;;;27.37;59.06;96774.41;1112093;261;98970;-48
2021/09/14 13:30:10;;;;;;;;;;;;;;;27.63;58.58;96767.35;1112955;260;99137;-45
2021/09/14 13:35:12;;;;;;;;;;;;;;;27.64;58.66;96761.99;1103063;261;69841;-46
2021/09/14 13:40:13;;;;;;;;;;;;;;;27.89;58.13;96761.52;1106895;261;67724;-50
2021/09/14 13:50:24;;;;;;;;;;;;;;;28.17;57.46;96764.58;1104538;262;153771;-47
2021/09/14 13:55:25;;;;;;;;;;;;;;;27.79;58.34;96762.20;1107301;262;98067;-51
2021/09/14 14:00:27;;;;;;;;;;;;;;;28.39;57.14;96762.84;1105589;260;98219;-47
2021/09/14 14:05:28;;;;;;;;;;;;;;;28.55;57.34;96756.98;1107761;262;67959;-52
2021/09/14 14:10:29;;;;;;;;;;;;;;;28.28;57.41;96763.91;1110941;260;67985;-51
2021/09/14 14:15:31;;;;;;;;;;;;;;;28.72;57.21;96759.13;1110909;260;276226;-51
2021/09/14 14:20:32;;;;;;;;;;;;;;;28.69;56.99;96754.30;1105716;262;98919;-51
2021/09/14 14:25:33;;;;;;;;;;;;;;;28.15;57.87;96749.44;1106083;262;97997;-50
2021/09/14 14:30:35;;;;;;;;;;;;;;;28.45;57.54;96747.94;1106600;262;67865;-46
2021/09/14 14:35:36;;;;;;;;;;;;;;;28.44;57.65;96739.37;1110228;260;67960;-49
2021/09/14 14:40:40;;;;;;;;;;;;;;;29.22;56.34;96727.34;1106800;262;188676;-50
2021/09/14 14:45:41;;;;;;;;;;;;;;;29.02;56.33;96717.67;1109454;260;67896;-50
2021/09/14 14:50:42;;;;;;;;;;;;;;;28.78;56.66;96714.91;1105092;262;97521;-48
2021/09/14 14:55:43;;;;;;;;;;;;;;;28.46;57.21;96714.69;1107369;262;98774;-49
2021/09/14 15:00:45;;;;;;;;;;;;;;;28.86;56.71;96717.16;1110600;261;67901;-48
2021/09/14 15:05:46;;;;;;;;;;;;;;;29.43;55.87;96709.09;1111574;261;67402;-50
2021/09/14 15:10:49;;;;;;;;;;;;;;;29.23;55.95;96706.61;1110506;261;67782;-49
2021/09/14 15:15:51;;;;;;;;;;;;;;;28.74;56.65;96710.72;1112085;261;184702;-48
2021/09/14 15:20:52;;;;;;;;;;;;;;;28.76;56.61;96711.72;1106985;261;98945;-52
2021/09/14 15:25:56;;;;;;;;;;;;;;;28.67;56.76;96707.87;1109746;261;98949;-48
2021/09/14 15:30:59;;;;;;;;;;;;;;;28.66;56.82;96716.04;1111968;261;68541;-50
2021/09/14 15:36:01;;;;;;;;;;;;;;;29.44;55.59;96712.88;1112538;260;67885;-50
2021/09/14 15:41:02;;;;;;;;;;;;;;;28.33;57.41;96713.40;1110792;261;98933;-50
2021/09/14 15:46:04;;;;;;;;;;;;;;;29.39;55.91;96708.48;1112654;260;67832;-53
2021/09/14 15:51:05;;;;;;;;;;;;;;;28.91;56.67;96707.84;1112822;261;67840;-51
2021/09/14 15:56:07;;;;;;;;;;;;;;;28.88;56.41;96708.63;1112242;261;275683;-49
2021/09/14 16:01:08;;;;;;;;;;;;;;;29.15;56.30;96705.00;1111001;260;98989;-53
2021/09/14 16:06:09;;;;;;;;;;;;;;;28.70;57.27;96718.25;1102837;262;98969;-50
2021/09/14 16:11:13;;;;;;;;;;;;;;;29.04;56.40;96716.11;1104226;262;68259;-51
2021/09/14 16:16:14;;;;;;;;;;;;;;;28.76;57.24;96729.85;1101045;262;67559;-50
2021/09/14 16:21:15;;;;;;;;;;;;;;;28.77;56.95;96735.03;1107529;261;67784;-51
2021/09/14 16:26:16;;;;;;;;;;;;;;;29.09;56.71;96737.25;1106029;262;190887;-54
2021/09/14 16:31:18;;;;;;;;;;;;;;;28.41;57.48;96737.37;1105825;261;98898;-55
2021/09/14 16:36:19;;;;;;;;;;;;;;;28.78;57.04;96733.84;1112515;260;98958;-52
2021/09/14 16:41:21;;;;;;;;;;;;;;;28.48;57.64;96733.22;1103218;260;67042;-57
2021/09/14 16:46:22;;;;;;;;;;;;;;;28.52;57.47;96727.09;1104404;262;66809;-51
2021/09/14 16:51:23;;;;;;;;;;;;;;;28.52;57.60;96732.67;1106748;262;66079;-60
2021/09/14 16:56:26;;;;;;;;;;;;;;;28.68;57.21;96729.59;1112209;261;67075;-52
2021/09/14 17:01:27;;;;;;;;;;;;;;;28.61;57.69;96735.94;1112147;261;67099;-59
2021/09/14 17:06:28;;;;;;;;;;;;;;;28.42;57.72;96738.97;1112607;261;68250;-56
2021/09/14 17:11:30;;;;;;;;;;;;;;;28.40;57.97;96733.78;1111058;261;99042;-56
2021/09/14 17:16:31;;;;;;;;;;;;;;;28.70;57.58;96733.59;1108674;261;68835;-61
2021/09/14 17:21:33;;;;;;;;;;;;;;;28.39;57.94;96739.15;1111091;261;67589;-54
2021/09/14 17:26:34;;;;;;;;;;;;;;;28.52;57.70;96737.66;1108438;261;276977;-69
2021/09/14 17:31:35;;;;;;;;;;;;;;;28.76;57.63;96735.43;1111658;261;98969;-65
2021/09/14 17:36:37;;;;;;;;;;;;;;;28.39;58.00;96745.29;1112433;261;98388;-58
2021/09/14 17:41:38;;;;;;;;;;;;;;;28.33;58.31;96746.84;1112332;261;67313;-66
2021/09/14 17:46:39;;;;;;;;;;;;;;;28.22;58.42;96751.70;1112069;261;67553;-58
2021/09/14 17:51:41;;;;;;;;;;;;;;;28.13;58.84;96750.41;1112447;261;190342;-65
2021/09/14 17:56:42;;;;;;;;;;;;;;;28.38;58.17;96748.67;1111677;261;98953;-56
2021/09/14 18:01:44;;;;;;;;;;;;;;;28.32;58.34;96745.25;1112375;261;99006;-54
2021/09/14 18:06:45;;;;;;;;;;;;;;;28.28;58.59;96755.55;1111332;261;68034;-60
2021/09/14 18:11:46;;;;;;;;;;;;;;;28.59;58.24;96744.45;1111886;261;68411;-66
2021/09/14 18:16:48;;;;;;;;;;;;;;;28.42;58.30;96745.94;1112885;260;67989;-55
2021/09/14 18:21:49;;;;;;;;;;;;;;;28.68;57.93;96742.14;1110290;261;185379;-63
2021/09/14 18:26:51;;;;;;;;;;;;;;;28.51;58.39;96748.60;1111451;261;98832;-56
2021/09/14 18:31:52;;;;;;;;;;;;;;;28.29;58.55;96749.61;1109933;260;99387;-53
2021/09/14 18:36:54;;;;;;;;;;;;;;;28.10;58.96;96749.20;1105073;261;68177;-50
2021/09/14 18:41:55;;;;;;;;;;;;;;;27.96;59.33;96756.00;1106636;262;68582;-56
2021/09/14 18:46:56;;;;;;;;;;;;;;;28.60;58.30;96748.84;1111449;261;275371;-57
2021/09/14 18:51:58;;;;;;;;;;;;;;;27.81;59.46;96748.70;1112279;261;97949;-53
2021/09/14 18:56:59;;;;;;;;;;;;;;;28.54;59.20;96749.81;1112365;261;98965;-50
2021/09/14 19:02:00;;;;;;;;;;;;;;;28.64;58.38;96751.88;1111775;261;67672;-54
2021/09/14 19:07:02;;;;;;;;;;;;;;;28.67;57.96;96745.52;1111190;261;67823;-53
2021/09/14 19:12:04;;;;;;;;;;;;;;;28.51;58.14;96755.58;1105450;262;189253;-52
2021/09/14 19:17:05;;;;;;;;;;;;;;;29.82;55.99;96744.97;1107848;262;98966;-56
2021/09/14 19:22:07;;;;;;;;;;;;;;;29.48;56.54;96754.83;1111840;259;98928;-54
2021/09/14 19:27:08;;;;;;;;;;;;;;;29.50;56.51;96750.45;1102531;262;195542;-50
2021/09/14 19:32:10;;;;;;;;;;;;;;;26.35;62.50;96748.79;1104077;262;98778;-54
2021/09/14 19:37:11;;;;;;;;;;;;;;;26.67;62.12;96751.31;1105121;262;98958;-52
2021/09/14 19:42:12;;;;;;;;;;;;;;;26.67;61.80;96752.70;1106107;262;66869;-52
2021/09/14 19:47:14;;;;;;;;;;;;;;;26.96;61.41;96751.15;1111822;261;67040;-52
2021/09/14 19:52:15;;;;;;;;;;;;;;;26.96;61.46;96746.39;1104780;261;98978;-49
2021/09/14 19:57:16;;;;;;;;;;;;;;;27.20;60.89;96742.95;1103633;261;67971;-51
2021/09/14 20:02:18;;;;;;;;;;;;;;;27.51;60.69;96743.95;1106234;262;67914;-50
2021/09/14 20:07:19;;;;;;;;;;;;;;;26.17;62.76;96742.16;1112192;260;277315;-58
2021/09/14 20:12:20;;;;;;;;;;;;;;;26.18;63.02;96744.55;1112245;260;98986;-48
2021/09/14 20:17:22;;;;;;;;;;;;;;;26.09;63.12;96738.44;1112442;261;98128;-49
2021/09/14 20:22:23;;;;;;;;;;;;;;;26.40;62.46;96731.84;1112300;261;67944;-49
2021/09/14 20:27:24;;;;;;;;;;;;;;;26.60;61.99;96733.16;1106663;261;67759;-45
2021/09/14 20:32:26;;;;;;;;;;;;;;;26.67;61.70;96730.46;1105575;262;190301;-51
2021/09/14 20:37:27;;;;;;;;;;;;;;;26.77;61.57;96725.06;1110285;260;98818;-46
